createdAt,value
2023-03-18T00:06:05.313Z,99160.80
2023-03-18T00:15:39.349Z,99149.85
2023-03-18T00:25:18.345Z,99166.79
2023-03-18T00:34:49.436Z,99169.16
2023-03-18T00:44:21.642Z,99168.09
2023-03-18T00:53:55.377Z,99174.34
2023-03-18T01:03:29.453Z,99190.00
2023-03-18T01:13:04.771Z,99171.03
2023-03-18T01:22:36.946Z,99158.84
2023-03-18T01:32:10.778Z,99173.02
2023-03-18T01:41:45.063Z,99153.71
2023-03-18T01:51:16.931Z,99150.78
2023-03-18T02:00:52.438Z,99146.84
2023-03-18T02:10:24.579Z,99147.95
2023-03-18T02:20:00.020Z,99156.29
2023-03-18T02:29:31.835Z,99150.77
2023-03-18T02:39:05.710Z,99160.24
2023-03-18T02:48:39.440Z,99174.90
2023-03-18T02:58:13.510Z,99197.55
2023-03-18T03:07:45.190Z,99180.16
2023-03-18T03:17:19.076Z,99178.72
2023-03-18T03:26:52.602Z,99187.28
2023-03-18T03:36:26.067Z,99203.77
2023-03-18T03:46:01.538Z,99189.95
2023-03-18T03:55:33.740Z,99198.58
2023-03-18T04:05:06.714Z,99184.97
2023-03-18T04:14:39.666Z,99194.23
2023-03-18T04:24:12.095Z,99210.15
2023-03-18T04:33:45.562Z,99205.55
2023-03-18T04:43:21.266Z,99216.28
2023-03-18T04:52:52.925Z,99218.97
2023-03-18T05:02:26.744Z,99230.92
2023-03-18T05:12:00.158Z,99222.31
2023-03-18T05:21:35.259Z,99220.72
2023-03-18T05:31:08.418Z,99229.61
2023-03-18T05:40:40.624Z,99230.00
2023-03-18T05:50:15.952Z,99229.85
2023-03-18T05:59:47.607Z,99236.53
2023-03-18T06:09:21.649Z,99240.06
2023-03-18T06:18:55.212Z,99250.18
2023-03-18T06:28:28.898Z,99249.28
2023-03-18T06:38:04.368Z,99256.38
2023-03-18T06:47:38.058Z,99260.80
2023-03-18T06:57:10.386Z,99266.47
2023-03-18T07:06:45.362Z,99280.91
2023-03-18T07:16:18.123Z,99289.59
2023-03-18T07:25:53.952Z,99294.48
2023-03-18T07:35:26.356Z,99295.08
2023-03-18T07:45:01.137Z,99303.86
2023-03-18T07:54:35.833Z,99303.40
2023-03-18T08:04:10.376Z,99296.91
2023-03-18T08:13:46.511Z,99300.13
2023-03-18T08:14:48.841Z,99298.54
2023-03-18T08:15:51.344Z,99300.05
2023-03-18T08:25:25.148Z,99311.91
2023-03-18T08:35:00.188Z,99316.22
2023-03-18T08:36:02.614Z,99314.78
2023-03-18T08:37:05.163Z,99310.19
2023-03-18T08:38:09.181Z,99307.36
2023-03-18T08:39:13.192Z,99305.98
2023-03-18T08:40:17.065Z,99302.77
2023-03-18T08:41:19.379Z,99304.77
2023-03-18T08:42:21.804Z,99304.97
2023-03-18T08:51:56.283Z,99321.27
2023-03-18T08:53:00.258Z,99320.67
2023-03-18T08:54:02.561Z,99322.09
2023-03-18T08:55:05.034Z,99323.39
2023-03-18T08:56:07.491Z,99318.40
2023-03-18T08:57:11.524Z,99320.73
2023-03-18T08:58:14.832Z,99317.52
2023-03-18T08:59:18.771Z,99318.36
2023-03-18T09:00:22.786Z,99322.82
2023-03-18T09:01:25.196Z,99320.32
2023-03-18T09:02:27.519Z,99323.25
2023-03-18T09:03:29.997Z,99326.60
2023-03-18T09:04:32.468Z,99320.72
2023-03-18T09:05:35.193Z,99321.88
2023-03-18T09:06:37.272Z,99325.24
2023-03-18T09:07:41.267Z,99326.63
2023-03-18T09:08:45.241Z,99325.24
2023-03-18T09:09:47.609Z,99324.64
2023-03-18T09:10:51.630Z,99323.56
2023-03-18T09:11:53.966Z,99322.38
2023-03-18T09:12:58.054Z,99320.58
2023-03-18T09:14:02.022Z,99315.06
2023-03-18T09:15:05.908Z,99315.38
2023-03-18T09:16:09.785Z,99317.29
2023-03-18T09:25:40.270Z,99316.28
2023-03-18T09:26:44.380Z,99313.69
2023-03-18T09:27:46.714Z,99313.92
2023-03-18T09:28:49.185Z,99311.00
2023-03-18T09:29:53.224Z,99311.13
2023-03-18T09:30:57.303Z,99303.86
2023-03-18T09:31:59.520Z,99300.20
2023-03-18T09:33:02.052Z,99304.06
2023-03-18T09:34:04.481Z,99303.41
2023-03-18T09:35:06.915Z,99309.14
2023-03-18T09:36:09.428Z,99306.09
2023-03-18T09:37:11.877Z,99302.63
2023-03-18T09:38:15.929Z,99302.57
2023-03-18T09:39:19.916Z,99300.68
2023-03-18T09:40:22.207Z,99303.07
2023-03-18T09:41:26.264Z,99294.52
2023-03-18T09:42:28.914Z,99295.95
2023-03-18T09:43:31.229Z,99301.55
2023-03-18T09:44:33.859Z,99296.07
2023-03-18T09:45:36.345Z,99299.45
2023-03-18T09:46:38.911Z,99295.36
2023-03-18T09:47:41.289Z,99302.60
2023-03-18T09:48:43.786Z,99296.20
2023-03-18T09:49:46.222Z,99298.97
2023-03-18T09:50:48.673Z,99304.13
2023-03-18T09:51:51.183Z,99302.33
2023-03-18T09:52:55.198Z,99304.10
2023-03-18T09:53:57.499Z,99302.42
2023-03-18T09:55:01.557Z,99300.06
2023-03-18T09:56:03.947Z,99302.16
2023-03-18T09:57:06.361Z,99306.74
2023-03-18T09:58:08.856Z,99308.14
2023-03-18T09:59:11.298Z,99299.45
2023-03-18T10:00:13.914Z,99302.66
2023-03-18T10:01:16.447Z,99303.20
2023-03-18T10:02:20.495Z,99305.50
2023-03-18T10:03:22.830Z,99305.23
2023-03-18T10:04:26.868Z,99303.31
2023-03-18T10:05:31.166Z,99305.39
2023-03-18T10:06:34.748Z,99303.23
2023-03-18T10:07:38.720Z,99302.66
2023-03-18T10:08:40.982Z,99304.19
2023-03-18T10:09:43.449Z,99302.98
2023-03-18T10:10:45.903Z,99310.56
2023-03-18T10:11:50.062Z,99309.98
2023-03-18T10:12:52.382Z,99303.91
2023-03-18T10:13:56.428Z,99305.41
2023-03-18T10:14:58.754Z,99305.00
2023-03-18T10:16:02.806Z,99303.56
2023-03-18T10:17:06.742Z,99303.66
2023-03-18T10:18:09.048Z,99300.78
2023-03-18T10:19:11.509Z,99303.38
2023-03-18T10:20:15.359Z,99302.38
2023-03-18T10:21:18.130Z,99305.01
2023-03-18T10:22:20.361Z,99302.22
2023-03-18T10:23:22.909Z,99307.70
2023-03-18T10:24:26.963Z,99310.45
2023-03-18T10:25:29.317Z,99299.91
2023-03-18T10:26:31.740Z,99301.95
2023-03-18T10:27:34.222Z,99300.29
2023-03-18T10:28:36.616Z,99301.78
2023-03-18T10:29:39.071Z,99297.13
2023-03-18T10:30:42.941Z,99296.55
2023-03-18T10:31:45.622Z,99297.06
2023-03-18T10:32:50.572Z,99294.19
2023-03-18T10:33:53.491Z,99297.95
2023-03-18T10:34:57.493Z,99291.52
2023-03-18T10:36:01.465Z,99296.06
2023-03-18T10:37:03.771Z,99293.99
2023-03-18T10:38:07.807Z,99294.21
2023-03-18T10:39:10.161Z,99300.67
2023-03-18T10:40:14.176Z,99298.89
2023-03-18T10:41:16.464Z,99296.33
2023-03-18T10:42:20.485Z,99299.38
2023-03-18T10:43:24.420Z,99298.42
2023-03-18T10:44:28.304Z,99296.04
2023-03-18T10:45:30.933Z,99296.94
2023-03-18T10:46:33.384Z,99297.75
2023-03-18T10:47:35.685Z,99296.64
2023-03-18T10:48:39.682Z,99299.18
2023-03-18T10:49:42.004Z,99299.00
2023-03-18T10:50:44.507Z,99300.59
2023-03-18T10:51:46.965Z,99301.27
2023-03-18T10:52:49.409Z,99299.44
2023-03-18T10:53:51.901Z,99301.80
2023-03-18T10:54:55.867Z,99296.01
2023-03-18T10:55:58.200Z,99302.78
2023-03-18T10:57:00.678Z,99300.03
2023-03-18T10:58:04.739Z,99301.86
2023-03-18T10:59:08.628Z,99301.04
2023-03-18T11:00:11.907Z,99297.17
2023-03-18T11:01:18.253Z,99297.78
2023-03-18T11:02:19.804Z,99302.54
2023-03-18T11:03:22.116Z,99304.00
2023-03-18T11:04:26.170Z,99299.77
2023-03-18T11:05:30.520Z,99294.98
2023-03-18T11:06:33.974Z,99294.92
2023-03-18T11:07:36.299Z,99295.09
2023-03-18T11:08:38.744Z,99295.25
2023-03-18T11:09:41.243Z,99297.20
2023-03-18T11:10:43.661Z,99298.13
2023-03-18T11:11:46.125Z,99298.04
2023-03-18T11:12:48.584Z,99300.44
2023-03-18T11:13:51.097Z,99293.55
2023-03-18T11:14:55.099Z,99296.81
2023-03-18T11:15:57.495Z,99299.11
2023-03-18T11:17:01.499Z,99298.26
2023-03-18T11:18:05.401Z,99296.37
2023-03-18T11:19:07.627Z,99298.14
2023-03-18T11:20:10.093Z,99298.50
2023-03-18T11:21:14.166Z,99297.82
2023-03-18T11:22:18.304Z,99297.21
2023-03-18T11:23:20.597Z,99296.80
2023-03-18T11:24:24.643Z,99294.47
2023-03-18T11:25:28.505Z,99298.13
2023-03-18T11:26:32.359Z,99297.61
2023-03-18T11:27:34.701Z,99295.02
2023-03-18T11:28:38.789Z,99292.59
2023-03-18T11:29:41.154Z,99293.49
2023-03-18T11:30:43.742Z,99291.11
2023-03-18T11:31:47.643Z,99296.69
2023-03-18T11:32:51.632Z,99293.13
2023-03-18T11:33:53.927Z,99295.90
2023-03-18T11:34:56.395Z,99296.06
2023-03-18T11:35:58.861Z,99296.18
2023-03-18T11:37:01.310Z,99300.80
2023-03-18T11:38:03.712Z,99295.97
2023-03-18T11:39:06.277Z,99293.98
2023-03-18T11:40:10.245Z,99287.89
2023-03-18T11:41:14.150Z,99291.59
2023-03-18T11:42:16.549Z,99279.29
2023-03-18T11:43:19.065Z,99281.02
2023-03-18T11:44:21.417Z,99278.64
2023-03-18T11:45:23.924Z,99277.47
2023-03-18T11:46:28.034Z,99285.05
2023-03-18T11:47:30.321Z,99280.95
2023-03-18T11:48:32.733Z,99276.09
2023-03-18T11:49:35.175Z,99273.98
2023-03-18T11:50:37.681Z,99273.55
2023-03-18T11:51:40.149Z,99267.63
2023-03-18T11:52:42.593Z,99271.42
2023-03-18T11:53:45.130Z,99274.56
2023-03-18T11:54:47.524Z,99270.54
2023-03-18T11:55:50.015Z,99268.23
2023-03-18T11:56:52.457Z,99263.73
2023-03-18T11:57:56.525Z,99264.84
2023-03-18T11:58:58.882Z,99261.73
2023-03-18T12:00:01.557Z,99267.34
2023-03-18T12:01:03.982Z,99265.16
2023-03-18T12:02:06.463Z,99265.59
2023-03-18T12:03:10.736Z,99263.13
2023-03-18T12:04:12.847Z,99261.09
2023-03-18T12:05:17.033Z,99262.11
2023-03-18T12:06:19.282Z,99260.92
2023-03-18T12:07:21.736Z,99259.91
2023-03-18T12:08:24.236Z,99262.20
2023-03-18T12:09:26.723Z,99256.80
2023-03-18T12:10:29.267Z,99256.36
2023-03-18T12:11:31.715Z,99257.89
2023-03-18T12:12:35.829Z,99256.13
2023-03-18T12:13:38.172Z,99251.39
2023-03-18T12:14:40.632Z,99251.88
2023-03-18T12:15:43.127Z,99250.84
2023-03-18T12:16:47.285Z,99250.48
2023-03-18T12:17:49.584Z,99247.09
2023-03-18T12:18:52.014Z,99245.39
2023-03-18T12:19:56.072Z,99251.36
2023-03-18T12:21:00.092Z,99250.19
2023-03-18T12:22:02.378Z,99245.53
2023-03-18T12:23:06.504Z,99249.22
2023-03-18T12:24:09.833Z,99243.27
2023-03-18T12:25:12.221Z,99251.25
2023-03-18T12:26:14.686Z,99244.27
2023-03-18T12:27:17.212Z,99246.14
2023-03-18T12:28:21.309Z,99247.66
2023-03-18T12:29:25.256Z,99250.17
2023-03-18T12:30:29.258Z,99247.84
2023-03-18T12:31:31.625Z,99246.28
2023-03-18T12:32:35.740Z,99249.15
2023-03-18T12:33:39.686Z,99249.70
2023-03-18T12:34:42.008Z,99244.56
2023-03-18T12:35:46.346Z,99240.35
2023-03-18T12:36:48.626Z,99248.23
2023-03-18T12:37:51.102Z,99243.65
2023-03-18T12:38:54.650Z,99242.63
2023-03-18T12:39:56.946Z,99241.80
2023-03-18T12:41:01.056Z,99241.38
2023-03-18T12:42:05.036Z,99235.84
2023-03-18T12:43:08.986Z,99238.72
2023-03-18T12:44:11.327Z,99237.99
2023-03-18T12:45:15.423Z,99243.19
2023-03-18T12:46:19.374Z,99244.92
2023-03-18T12:47:23.310Z,99248.03
2023-03-18T12:48:42.631Z,99245.25
2023-03-18T12:49:28.147Z,99242.69
2023-03-18T12:50:30.587Z,99244.98
2023-03-18T12:51:34.702Z,99243.17
2023-03-18T12:52:37.080Z,99240.73
2023-03-18T12:53:39.710Z,99245.81
2023-03-18T12:54:42.135Z,99247.70
2023-03-18T12:55:44.620Z,99245.39
2023-03-18T12:56:48.725Z,99247.22
2023-03-18T12:57:53.716Z,99243.36
2023-03-18T12:58:56.018Z,99242.97
2023-03-18T13:00:00.078Z,99241.27
2023-03-18T13:01:02.569Z,99237.80
2023-03-18T13:02:06.656Z,99239.34
2023-03-18T13:03:08.946Z,99236.73
2023-03-18T13:04:11.425Z,99239.03
2023-03-18T13:05:13.920Z,99244.33
2023-03-18T13:06:16.493Z,99239.22
2023-03-18T13:07:19.050Z,99238.84
2023-03-18T13:08:21.440Z,99237.05
2023-03-18T13:09:26.558Z,99239.69
2023-03-18T13:10:28.885Z,99240.69
2023-03-18T13:11:32.973Z,99242.30
2023-03-18T13:12:35.361Z,99240.34
2023-03-18T13:13:39.422Z,99243.22
2023-03-18T13:14:43.365Z,99240.92
2023-03-18T13:15:47.256Z,99239.23
2023-03-18T13:16:49.593Z,99232.95
2023-03-18T13:17:53.622Z,99231.61
2023-03-18T13:18:57.566Z,99229.73
2023-03-18T13:20:01.488Z,99225.03
2023-03-18T13:21:03.851Z,99229.21
2023-03-18T13:22:07.972Z,99225.88
2023-03-18T13:23:11.938Z,99224.08
2023-03-18T13:24:14.248Z,99223.64
2023-03-18T13:25:16.745Z,99222.28
2023-03-18T13:26:19.175Z,99219.16
2023-03-18T13:27:21.698Z,99223.21
2023-03-18T13:28:24.271Z,99219.23
2023-03-18T13:29:26.731Z,99219.02
2023-03-18T13:30:29.185Z,99222.77
2023-03-18T13:31:33.296Z,99224.57
2023-03-18T13:32:36.715Z,99225.09
2023-03-18T13:33:40.717Z,99221.70
2023-03-18T13:43:12.404Z,99229.80
2023-03-18T13:44:17.414Z,99227.44
2023-03-18T13:45:25.226Z,99227.51
2023-03-18T13:46:28.420Z,99230.59
2023-03-18T13:47:30.785Z,99229.98
2023-03-18T13:48:34.684Z,99226.36
2023-03-18T13:49:39.343Z,99223.91
2023-03-18T13:50:45.903Z,99229.00
2023-03-18T13:51:48.138Z,99227.04
2023-03-18T13:52:50.579Z,99226.00
2023-03-18T13:53:54.195Z,99225.09
2023-03-18T13:55:01.874Z,99224.19
2023-03-18T13:56:05.083Z,99225.50
2023-03-18T13:57:08.321Z,99226.34
2023-03-18T13:58:11.672Z,99221.33
2023-03-18T13:59:14.992Z,99226.42
2023-03-18T14:00:17.206Z,99225.52
2023-03-18T14:01:20.687Z,99227.28
2023-03-18T14:02:23.986Z,99223.89
2023-03-18T14:03:31.996Z,99227.59
2023-03-18T14:04:35.723Z,99226.20
2023-03-18T14:05:38.029Z,99224.41
2023-03-18T14:06:41.456Z,99223.46
2023-03-18T14:07:43.709Z,99217.67
2023-03-18T14:08:46.136Z,99221.34
2023-03-18T14:09:49.553Z,99220.44
2023-03-18T14:10:52.934Z,99219.86
2023-03-18T14:11:55.301Z,99220.16
2023-03-18T14:12:57.768Z,99217.53
2023-03-18T14:14:00.150Z,99213.31
2023-03-18T14:15:03.620Z,99218.64
2023-03-18T14:16:07.598Z,99216.61
2023-03-18T14:17:09.929Z,99211.04
2023-03-18T14:18:13.991Z,99210.84
2023-03-18T14:19:16.347Z,99210.47
2023-03-18T14:20:20.496Z,99208.60
2023-03-18T14:21:22.813Z,99209.97
2023-03-18T14:22:25.312Z,99208.13
2023-03-18T14:23:27.820Z,99209.69
2023-03-18T14:24:30.310Z,99215.48
2023-03-18T14:25:33.193Z,99212.14
2023-03-18T14:26:38.011Z,99214.16
2023-03-18T14:27:40.254Z,99215.88
2023-03-18T14:28:42.796Z,99214.52
2023-03-18T14:29:45.265Z,99213.42
2023-03-18T14:30:49.320Z,99204.75
2023-03-18T14:31:52.723Z,99207.33
2023-03-18T14:32:59.025Z,99205.98
2023-03-18T14:34:01.119Z,99204.80
2023-03-18T14:35:05.188Z,99207.22
2023-03-18T14:36:09.921Z,99206.94
2023-03-18T14:37:09.947Z,99208.56
2023-03-18T14:38:12.385Z,99206.44
2023-03-18T14:39:16.469Z,99205.33
2023-03-18T14:40:20.461Z,99203.66
2023-03-18T14:41:22.757Z,99200.09
2023-03-18T14:42:26.815Z,99201.39
2023-03-18T14:43:30.753Z,99203.38
2023-03-18T14:44:34.796Z,99205.89
2023-03-18T14:45:39.763Z,99202.27
2023-03-18T14:46:43.068Z,99197.49
2023-03-18T14:47:46.902Z,99200.97
2023-03-18T14:48:50.868Z,99199.80
2023-03-18T14:49:54.858Z,99199.73
2023-03-18T14:50:59.835Z,99199.27
2023-03-18T14:52:03.656Z,99197.27
2023-03-18T14:53:08.678Z,99194.77
2023-03-18T14:54:12.626Z,99200.22
2023-03-18T14:55:15.920Z,99199.84
2023-03-18T14:56:19.383Z,99196.34
2023-03-18T14:57:21.864Z,99199.40
2023-03-18T14:58:25.302Z,99198.55
2023-03-18T14:59:29.193Z,99202.45
2023-03-18T15:00:33.163Z,99195.06
2023-03-18T15:01:35.737Z,99198.19
2023-03-18T15:02:39.743Z,99192.06
2023-03-18T15:03:42.995Z,99190.48
2023-03-18T15:04:45.399Z,99191.61
2023-03-18T15:05:47.918Z,99192.68
2023-03-18T15:06:50.546Z,99189.86
2023-03-18T15:07:53.044Z,99190.40
2023-03-18T15:08:58.169Z,99192.41
2023-03-18T15:10:00.533Z,99193.30
2023-03-18T15:11:04.670Z,99192.55
2023-03-18T15:12:10.863Z,99193.11
2023-03-18T15:13:15.980Z,99192.06
2023-03-18T15:14:18.216Z,99192.31
2023-03-18T15:15:21.705Z,99193.21
2023-03-18T15:16:24.175Z,99188.42
2023-03-18T15:17:28.280Z,99186.81
2023-03-18T15:18:33.281Z,99186.17
2023-03-18T15:19:35.613Z,99187.19
2023-03-18T15:20:39.701Z,99184.92
2023-03-18T15:21:43.171Z,99180.02
2023-03-18T15:22:47.171Z,99179.39
2023-03-18T15:23:51.184Z,99179.52
2023-03-18T15:24:55.183Z,99174.05
2023-03-18T15:25:57.547Z,99174.25
2023-03-18T15:27:00.057Z,99174.43
2023-03-18T15:28:04.188Z,99176.00
2023-03-18T15:29:06.573Z,99175.27
2023-03-18T15:30:11.604Z,99172.44
2023-03-18T15:31:14.994Z,99173.23
2023-03-18T15:32:17.371Z,99171.20
2023-03-18T15:33:21.373Z,99171.44
2023-03-18T15:34:25.366Z,99173.31
2023-03-18T15:35:27.805Z,99170.25
2023-03-18T15:36:30.334Z,99169.54
2023-03-18T15:37:32.814Z,99168.03
2023-03-18T15:38:36.942Z,99170.62
2023-03-18T15:39:39.357Z,99173.59
2023-03-18T15:40:43.477Z,99170.36
2023-03-18T15:41:47.474Z,99175.78
2023-03-18T15:42:49.887Z,99171.73
2023-03-18T15:43:52.447Z,99175.98
2023-03-18T15:44:56.527Z,99175.88
2023-03-18T15:45:58.924Z,99172.52
2023-03-18T15:47:01.373Z,99175.56
2023-03-18T15:48:03.830Z,99173.41
2023-03-18T15:49:06.388Z,99181.31
2023-03-18T15:50:10.474Z,99172.69
2023-03-18T15:51:12.844Z,99170.78
2023-03-18T15:52:17.023Z,99169.92
2023-03-18T15:53:19.403Z,99173.20
2023-03-18T15:54:21.900Z,99171.95
2023-03-18T15:55:24.460Z,99169.02
2023-03-18T15:56:26.920Z,99166.97
2023-03-18T15:57:29.480Z,99164.68
2023-03-18T15:58:32.032Z,99166.65
2023-03-18T15:59:36.158Z,99168.23
2023-03-18T16:00:40.131Z,99166.18
2023-03-18T16:01:42.513Z,99164.34
2023-03-18T16:02:46.626Z,99164.20
2023-03-18T16:03:50.615Z,99167.17
2023-03-18T16:04:54.578Z,99166.06
2023-03-18T16:05:56.959Z,99162.85
2023-03-18T16:06:59.453Z,99156.88
2023-03-18T16:08:01.981Z,99157.34
2023-03-18T16:09:04.500Z,99159.82
2023-03-18T16:10:08.668Z,99159.66
2023-03-18T16:11:11.100Z,99163.80
2023-03-18T16:12:15.146Z,99165.09
2023-03-18T16:13:17.519Z,99166.24
2023-03-18T16:14:20.073Z,99165.03
2023-03-18T16:15:22.564Z,99165.11
2023-03-18T16:16:25.115Z,99162.13
2023-03-18T16:17:29.177Z,99158.27
2023-03-18T16:18:33.163Z,99165.46
2023-03-18T16:19:37.124Z,99163.11
2023-03-18T16:20:39.465Z,99161.64
2023-03-18T16:21:43.571Z,99161.12
2023-03-18T16:22:47.554Z,99161.52
2023-03-18T16:23:49.963Z,99162.52
2023-03-18T16:24:54.091Z,99166.89
2023-03-18T16:25:58.082Z,99160.80
2023-03-18T16:27:00.436Z,99163.45
2023-03-18T16:28:02.907Z,99167.02
2023-03-18T16:29:05.386Z,99170.27
2023-03-18T16:30:08.176Z,99160.59
2023-03-18T16:31:10.375Z,99166.31
2023-03-18T16:32:14.515Z,99166.91
2023-03-18T16:33:16.904Z,99170.13
2023-03-18T16:34:21.887Z,99166.88
2023-03-18T16:35:24.939Z,99165.41
2023-03-18T16:36:27.265Z,99165.69
2023-03-18T16:37:29.799Z,99166.61
2023-03-18T16:38:33.911Z,99165.80
2023-03-18T16:39:36.237Z,99167.75
2023-03-18T16:40:38.701Z,99166.03
2023-03-18T16:41:41.203Z,99169.67
2023-03-18T16:42:45.274Z,99169.92
2023-03-18T16:43:47.589Z,99168.35
2023-03-18T16:44:50.094Z,99173.76
2023-03-18T16:45:52.600Z,99177.25
2023-03-18T16:46:56.622Z,99180.90
2023-03-18T16:47:59.000Z,99177.66
2023-03-18T16:49:03.187Z,99181.69
2023-03-18T16:50:06.980Z,99183.16
2023-03-18T16:51:09.377Z,99181.54
2023-03-18T16:52:13.434Z,99180.27
2023-03-18T16:53:19.520Z,99178.38
2023-03-18T16:54:21.796Z,99177.61
2023-03-18T16:55:25.676Z,99181.06
2023-03-18T16:56:27.941Z,99183.95
2023-03-18T16:57:31.436Z,99183.13
2023-03-18T16:58:35.613Z,99182.73
2023-03-18T16:59:38.855Z,99183.36
2023-03-18T17:00:41.130Z,99183.86
2023-03-18T17:01:43.535Z,99187.20
2023-03-18T17:02:47.586Z,99190.93
2023-03-18T17:03:51.556Z,99188.37
2023-03-18T17:04:53.878Z,99186.69
2023-03-18T17:05:56.358Z,99187.02
2023-03-18T17:06:58.860Z,99185.74
2023-03-18T17:08:02.929Z,99190.08
2023-03-18T17:09:06.860Z,99186.99
2023-03-18T17:10:10.895Z,99186.94
2023-03-18T17:11:13.375Z,99190.86
2023-03-18T17:12:17.207Z,99189.58
2023-03-18T17:13:25.052Z,99192.41
2023-03-18T17:14:27.210Z,99193.46
2023-03-18T17:15:29.634Z,99193.73
2023-03-18T17:16:32.187Z,99193.97
2023-03-18T17:17:36.308Z,99198.20
2023-03-18T17:18:40.260Z,99199.01
2023-03-18T17:19:42.580Z,99208.34
2023-03-18T17:20:45.097Z,99199.78
2023-03-18T17:21:47.562Z,99202.00
2023-03-18T17:22:50.064Z,99206.51
2023-03-18T17:23:52.477Z,99204.78
2023-03-18T17:24:57.599Z,99201.55
2023-03-18T17:25:59.809Z,99205.84
2023-03-18T17:27:03.826Z,99204.80
2023-03-18T17:28:06.265Z,99205.48
2023-03-18T17:29:11.291Z,99203.83
2023-03-18T17:30:13.479Z,99206.71
2023-03-18T17:31:16.013Z,99207.83
2023-03-18T17:32:18.408Z,99208.03
2023-03-18T17:41:50.457Z,99204.84
2023-03-18T17:51:20.183Z,99208.52
2023-03-18T18:00:52.525Z,99223.63
2023-03-18T18:10:28.271Z,99216.97
2023-03-18T18:19:59.799Z,99215.81
2023-03-18T18:29:31.104Z,99222.30
2023-03-18T18:39:05.064Z,99223.91
2023-03-18T18:48:39.036Z,99225.34
2023-03-18T18:58:15.657Z,99227.63
2023-03-18T19:07:47.104Z,99229.77
2023-03-18T19:17:21.006Z,99240.89
2023-03-18T19:18:25.115Z,99235.50
2023-03-18T19:27:56.618Z,99238.75
2023-03-18T19:37:32.280Z,99249.10
2023-03-18T19:47:04.077Z,99254.34
2023-03-18T19:56:38.129Z,99253.72
2023-03-18T20:06:14.386Z,99249.56
2023-03-18T20:15:47.210Z,99260.23
2023-03-18T20:25:20.753Z,99265.69
2023-03-18T20:34:53.714Z,99273.03
2023-03-18T20:44:28.068Z,99277.45
2023-03-18T20:54:03.875Z,99282.83
2023-03-18T21:03:37.887Z,99277.97
2023-03-18T21:13:10.200Z,99284.97
2023-03-18T21:22:44.428Z,99289.11
2023-03-18T21:32:20.136Z,99292.89
2023-03-18T21:41:52.586Z,99292.14
2023-03-18T21:51:37.834Z,99282.62
2023-03-18T22:01:01.068Z,99287.38
2023-03-18T22:10:35.603Z,99287.08
2023-03-18T22:20:09.833Z,99279.50
2023-03-18T22:29:44.385Z,99274.73
2023-03-18T22:39:20.447Z,99278.05
2023-03-18T22:48:54.640Z,99287.07
2023-03-18T22:58:28.874Z,99294.34
2023-03-18T23:08:01.554Z,99294.41
2023-03-18T23:17:37.854Z,99285.69
2023-03-18T23:27:09.989Z,99291.70
2023-03-18T23:36:45.804Z,99296.42
2023-03-18T23:46:19.886Z,99312.95
2023-03-18T23:55:52.398Z,99315.00
